Hauptseite
METAR-TAF:

METAR-TAF

Flughäfen :

Leeds Bradford International Airport

Leeds, England

Breite: 53-52N, Länge: 001-39W, Höhe: 208 m

Beobachtung

Neuester Wetterbericht von vor 15 Minuten, um 13:20 UTC
Wind 13 kt aus West
Temperatur 16°C
Luftfeuchtigkeit 55%
Luftdruck 1015 hPa
Sichtweite 10 km oder mehr
Aufgelockert bewölkt in der Höhe von 4000 ft

METAR: EGNM 231320Z 28013KT 9999 SCT040 16/07 Q1015

Zeit: 14:35 (13:35 UTC)

Prognose

Neuester Wetterbericht von vor 2 Stunden und 37 Minuten, um 10:58 UTC
Gültige Prognose vom 23 um 12 UTC bis 24 um 12 UTC
Wind 9 kt aus West
Sichtweite 10 km oder mehr
Leicht bewölkt in der Höhe von 3500 ft
Wahrscheinlichkeit 30% :
Zeitweise
vom 24 um 00 UTC bis 24 um 04 UTC
Durchbrochene Bewölkung in der Höhe von 1200 ft

TAF: EGNM 231058Z 2312/2412 27009KT 9999 FEW035 PROB30 TEMPO 2400/2404 BKN012

Wetterbeobachtungen und Prognosen von mehr als 4000 Flughäfen (METAR und TAF Bericht).

Die verfügbaren Stationen werden durch gelbe und rote Markierungen auf der Karte dargestellt.

Führen Sie die Maus auf sie, um den Namen der Station zu sehen.

Darauf klicken, um die Beobachtung von Wetterbeobachtungen und Prognosen zu sehen.

Um die Karte zu ändern : klicken Sie auf den grünen Tasten mit einem schwarzen Kreuz Zum Vergrößern, auf den grünen Button mit einem Gedankenstrich zu verkleinern, oder auf die grünen Pfeile für benachbarte Karten.


METAR-TAF: